createdAt,value
2022-08-08T00:00:53.449Z,52.20
2022-08-08T00:04:20.722Z,52.20
2022-08-08T00:08:16.938Z,52.00
2022-08-08T00:12:09.557Z,50.30
2022-08-08T00:16:05.168Z,49.90
2022-08-08T00:20:07.623Z,52.30
2022-08-08T00:24:04.494Z,52.10
2022-08-08T00:27:51.920Z,51.90
2022-08-08T00:32:28.742Z,51.50
2022-08-08T00:35:57.589Z,51.10
2022-08-08T00:41:09.859Z,52.60
2022-08-08T00:44:13.562Z,53.40
2022-08-08T00:48:59.449Z,53.50
2022-08-08T00:53:01.546Z,53.30
2022-08-08T00:57:23.743Z,53.70
2022-08-08T01:01:29.251Z,53.60
2022-08-08T01:05:58.438Z,53.10
2022-08-08T01:10:15.983Z,53.10
2022-08-08T01:14:18.975Z,52.90
2022-08-08T01:18:57.977Z,51.80
2022-08-08T01:23:01.846Z,53.10
2022-08-08T01:27:16.231Z,53.00
2022-08-08T01:32:02.902Z,51.40
2022-08-08T01:35:38.604Z,51.50
2022-08-08T01:39:42.241Z,51.10
2022-08-08T01:43:34.851Z,52.30
2022-08-08T01:48:16.543Z,52.20
2022-08-08T01:52:50.426Z,52.90
2022-08-08T01:56:34.116Z,52.90
2022-08-08T02:00:27.796Z,52.00
2022-08-08T02:04:39.771Z,52.10
2022-08-08T02:08:47.514Z,52.70
2022-08-08T02:12:52.662Z,52.60
2022-08-08T02:16:49.701Z,52.60
2022-08-08T02:21:12.952Z,52.10
2022-08-08T02:25:16.924Z,52.60
2022-08-08T02:29:52.757Z,52.50
2022-08-08T02:34:27.657Z,52.30
2022-08-08T02:38:53.028Z,52.30
2022-08-08T02:42:42.062Z,51.80
2022-08-08T02:46:52.017Z,51.20
2022-08-08T02:51:03.303Z,52.60
2022-08-08T02:54:50.109Z,52.50
2022-08-08T02:58:44.159Z,51.50
2022-08-08T03:02:50.487Z,52.00
2022-08-08T03:06:53.662Z,53.20
2022-08-08T03:11:05.091Z,53.50
2022-08-08T03:15:56.874Z,53.40
2022-08-08T03:19:57.523Z,53.10
2022-08-08T03:23:59.612Z,52.90
2022-08-08T03:27:56.487Z,51.30
2022-08-08T03:32:05.762Z,51.90
2022-08-08T03:35:50.555Z,51.60
2022-08-08T03:39:32.381Z,51.90
2022-08-08T03:43:21.241Z,52.10
2022-08-08T03:47:13.967Z,52.30
2022-08-08T03:51:06.199Z,52.60
2022-08-08T03:55:01.472Z,52.70
2022-08-08T03:58:53.606Z,52.90
2022-08-08T04:02:47.450Z,53.40
2022-08-08T04:06:34.344Z,53.10
2022-08-08T04:10:16.915Z,53.20
2022-08-08T04:14:03.808Z,53.40
2022-08-08T04:18:00.800Z,53.50
2022-08-08T04:21:45.778Z,53.50
2022-08-08T04:25:29.713Z,53.50
2022-08-08T04:29:12.394Z,53.50
2022-08-08T04:32:56.975Z,53.60
2022-08-08T04:36:38.862Z,53.70
2022-08-08T04:40:24.055Z,53.80
2022-08-08T04:44:06.399Z,53.90
2022-08-08T04:47:48.205Z,54.00
2022-08-08T04:51:55.244Z,54.10
2022-08-08T04:55:47.504Z,54.00
2022-08-08T04:59:41.975Z,54.10
2022-08-08T05:04:10.976Z,54.00
2022-08-08T05:07:27.028Z,54.00
2022-08-08T05:11:23.136Z,54.00
2022-08-08T05:15:07.239Z,54.10
2022-08-08T05:18:49.090Z,54.20
2022-08-08T05:22:32.203Z,54.40
2022-08-08T05:26:14.406Z,54.60
2022-08-08T05:29:56.406Z,54.60
2022-08-08T05:33:44.251Z,54.70
2022-08-08T05:37:51.772Z,54.70
2022-08-08T05:41:54.953Z,54.80
2022-08-08T05:45:43.172Z,54.90
2022-08-08T05:49:38.158Z,55.00
2022-08-08T05:54:24.205Z,55.10
2022-08-08T05:58:04.633Z,55.10
2022-08-08T06:01:57.487Z,55.00
2022-08-08T06:05:59.260Z,55.10
2022-08-08T06:10:00.843Z,57.00
2022-08-08T06:13:47.419Z,55.40
2022-08-08T06:17:51.453Z,55.40
2022-08-08T06:21:51.343Z,55.50
2022-08-08T06:26:35.696Z,55.70
2022-08-08T06:30:01.125Z,55.80
2022-08-08T06:34:25.805Z,55.70
2022-08-08T06:38:14.625Z,56.60
2022-08-08T06:41:59.474Z,55.60
2022-08-08T06:45:44.876Z,55.80
2022-08-08T06:49:55.097Z,55.80
2022-08-08T06:53:38.866Z,55.70
2022-08-08T06:57:25.031Z,55.70
2022-08-08T07:02:16.413Z,56.00
2022-08-08T07:05:20.274Z,56.10
2022-08-08T07:09:09.214Z,56.10
2022-08-08T07:13:03.445Z,56.60
2022-08-08T07:17:01.122Z,56.50
2022-08-08T07:20:51.435Z,57.20
2022-08-08T07:24:36.622Z,56.50
2022-08-08T07:28:30.881Z,56.60
2022-08-08T07:32:17.019Z,56.60
2022-08-08T07:36:00.541Z,56.60
2022-08-08T07:39:56.133Z,56.70
2022-08-08T07:43:42.973Z,56.80
2022-08-08T07:47:39.084Z,56.80
2022-08-08T07:51:24.347Z,56.80
2022-08-08T07:55:28.531Z,56.90
2022-08-08T07:59:19.344Z,56.90
2022-08-08T08:03:20.400Z,56.90
2022-08-08T08:07:08.698Z,56.70
2022-08-08T08:10:55.434Z,56.70
2022-08-08T08:15:04.440Z,56.70
2022-08-08T08:18:56.212Z,58.00
2022-08-08T08:22:38.462Z,56.50
2022-08-08T08:26:27.275Z,56.40
2022-08-08T08:30:10.122Z,56.60
2022-08-08T08:33:52.703Z,56.50
2022-08-08T08:37:52.969Z,56.40
2022-08-08T08:41:37.233Z,56.30
2022-08-08T08:45:22.570Z,56.10
2022-08-08T08:49:06.204Z,56.10
2022-08-08T08:53:00.000Z,56.10
2022-08-08T08:56:47.449Z,56.00
2022-08-08T09:00:44.399Z,55.90
2022-08-08T09:04:38.091Z,55.90
2022-08-08T09:08:24.853Z,56.00
2022-08-08T09:12:09.715Z,55.70
2022-08-08T09:15:52.105Z,55.70
2022-08-08T09:21:58.131Z,55.50
2022-08-08T09:23:50.627Z,55.40
2022-08-08T09:27:42.141Z,55.10
2022-08-08T09:31:57.472Z,55.10
2022-08-08T09:35:49.789Z,55.80
2022-08-08T09:39:43.125Z,54.90
2022-08-08T09:43:40.805Z,54.90
2022-08-08T09:48:09.538Z,54.70
2022-08-08T09:51:41.528Z,54.40
2022-08-08T09:56:04.812Z,54.20
2022-08-08T10:00:01.794Z,54.00
2022-08-08T10:03:55.717Z,53.80
2022-08-08T10:08:04.881Z,53.50
2022-08-08T10:12:26.279Z,53.20
2022-08-08T10:15:59.352Z,53.10
2022-08-08T10:19:57.226Z,52.80
2022-08-08T10:23:47.132Z,52.60
2022-08-08T10:27:43.517Z,52.20
2022-08-08T10:31:55.454Z,50.50
2022-08-08T10:36:08.190Z,50.50
2022-08-08T10:39:54.055Z,51.00
2022-08-08T10:43:43.098Z,49.40
2022-08-08T10:47:25.050Z,49.00
2022-08-08T10:51:13.871Z,48.90
2022-08-08T10:55:06.064Z,48.40
2022-08-08T10:58:57.830Z,46.90
2022-08-08T11:02:40.101Z,43.30
2022-08-08T11:06:28.302Z,47.00
2022-08-08T11:10:12.563Z,47.10
2022-08-08T11:14:03.315Z,46.90
2022-08-08T11:17:58.779Z,46.80
2022-08-08T11:21:55.831Z,46.80
2022-08-08T11:25:53.056Z,46.50
2022-08-08T11:29:51.235Z,46.40
2022-08-08T11:33:53.334Z,46.10
2022-08-08T11:38:39.096Z,45.90
2022-08-08T11:41:47.810Z,45.50
2022-08-08T11:45:48.272Z,45.40
2022-08-08T11:49:34.494Z,45.50
2022-08-08T11:53:19.118Z,45.50
2022-08-08T11:57:23.823Z,45.20
2022-08-08T12:01:16.169Z,43.00
2022-08-08T12:05:07.019Z,44.50
2022-08-08T12:08:49.293Z,42.20
2022-08-08T12:12:41.904Z,44.00
2022-08-08T12:16:31.846Z,41.10
2022-08-08T12:20:17.772Z,43.20
2022-08-08T12:24:17.536Z,43.00
2022-08-08T12:28:15.734Z,40.00
2022-08-08T12:32:20.869Z,39.30
2022-08-08T12:36:11.632Z,39.30
2022-08-08T12:40:00.128Z,39.60
2022-08-08T12:43:59.383Z,40.70
2022-08-08T12:48:04.608Z,40.40
2022-08-08T12:51:49.814Z,40.00
2022-08-08T12:56:08.876Z,39.30
2022-08-08T13:00:05.717Z,35.60
2022-08-08T13:03:54.106Z,38.60
2022-08-08T13:08:03.265Z,38.20
2022-08-08T13:12:19.531Z,36.70
2022-08-08T13:15:56.217Z,34.80
2022-08-08T13:19:49.928Z,37.30
2022-08-08T13:23:36.575Z,37.10
2022-08-08T13:27:21.800Z,36.60
2022-08-08T13:31:05.317Z,36.10
2022-08-08T13:34:53.259Z,35.70
2022-08-08T13:38:39.855Z,34.40
2022-08-08T13:42:23.946Z,33.20
2022-08-08T13:46:26.445Z,34.40
2022-08-08T13:50:36.487Z,32.20
2022-08-08T13:54:21.768Z,33.90
2022-08-08T13:58:08.878Z,31.20
2022-08-08T14:02:03.905Z,33.60
2022-08-08T14:06:00.550Z,33.30
2022-08-08T14:10:05.046Z,33.10
2022-08-08T14:13:59.078Z,32.60
2022-08-08T14:17:58.184Z,32.30
2022-08-08T14:21:51.998Z,32.00
2022-08-08T14:25:55.297Z,31.40
2022-08-08T14:29:40.311Z,29.00
2022-08-08T14:33:34.241Z,31.30
2022-08-08T14:37:19.516Z,28.50
2022-08-08T14:41:12.600Z,30.60
2022-08-08T14:45:02.733Z,28.80
2022-08-08T14:48:52.222Z,29.70
2022-08-08T14:52:48.242Z,29.30
2022-08-08T14:56:30.073Z,27.00
2022-08-08T15:00:14.494Z,28.80
2022-08-08T15:04:08.177Z,28.90
2022-08-08T15:07:59.989Z,28.40
2022-08-08T15:11:46.599Z,28.40
2022-08-08T15:16:02.019Z,28.40
2022-08-08T15:19:38.133Z,27.90
2022-08-08T15:23:20.050Z,27.60
2022-08-08T15:27:20.170Z,27.40
2022-08-08T15:31:04.060Z,27.00
2022-08-08T15:34:45.875Z,27.30
2022-08-08T15:38:27.681Z,27.10
2022-08-08T15:42:17.885Z,26.80
2022-08-08T15:46:12.142Z,26.60
2022-08-08T15:49:54.098Z,26.50
2022-08-08T15:53:49.229Z,26.40
2022-08-08T15:57:35.646Z,26.20
2022-08-08T16:01:22.456Z,26.00
2022-08-08T16:05:13.939Z,25.90
2022-08-08T16:09:02.419Z,25.80
2022-08-08T16:13:26.266Z,25.70
2022-08-08T16:17:02.513Z,25.60
2022-08-08T16:20:50.986Z,25.60
2022-08-08T16:24:33.018Z,25.30
2022-08-08T16:28:32.666Z,25.00
2022-08-08T16:32:20.031Z,24.70
2022-08-08T16:36:08.771Z,24.60
2022-08-08T16:40:02.488Z,24.90
2022-08-08T16:43:50.795Z,24.90
2022-08-08T16:47:41.805Z,24.80
2022-08-08T16:55:00.278Z,24.60
2022-08-08T16:55:53.220Z,24.60
2022-08-08T16:59:50.645Z,24.60
2022-08-08T17:04:01.303Z,24.60
2022-08-08T17:07:31.885Z,24.40
2022-08-08T17:11:13.824Z,24.20
2022-08-08T17:14:56.851Z,24.10
2022-08-08T17:18:39.268Z,24.10
2022-08-08T17:22:39.430Z,24.00
2022-08-08T17:26:29.006Z,23.90
2022-08-08T17:30:16.661Z,24.00
2022-08-08T17:34:53.981Z,23.80
2022-08-08T17:38:10.739Z,23.60
2022-08-08T17:41:58.569Z,23.80
2022-08-08T17:45:44.442Z,24.00
2022-08-08T17:49:28.481Z,24.00
2022-08-08T17:53:37.450Z,24.00
2022-08-08T17:57:22.031Z,23.90
2022-08-08T18:01:10.250Z,24.10
2022-08-08T18:04:54.909Z,23.80
2022-08-08T18:08:41.981Z,24.30
2022-08-08T18:12:25.692Z,24.20
2022-08-08T18:16:07.657Z,24.20
2022-08-08T18:20:43.401Z,24.30
2022-08-08T18:23:53.015Z,24.40
2022-08-08T18:27:38.378Z,24.60
2022-08-08T18:31:27.608Z,24.70
2022-08-08T18:35:09.948Z,24.70
2022-08-08T18:38:58.373Z,24.80
2022-08-08T18:42:45.594Z,24.80
2022-08-08T18:46:55.635Z,24.90
2022-08-08T18:50:33.895Z,25.10
2022-08-08T18:54:22.507Z,25.30
2022-08-08T18:58:10.240Z,25.50
2022-08-08T19:02:24.933Z,25.80
2022-08-08T19:05:53.809Z,26.30
2022-08-08T19:09:49.155Z,27.00
2022-08-08T19:13:56.936Z,27.50
2022-08-08T19:17:48.030Z,28.10
2022-08-08T19:21:49.379Z,28.60
2022-08-08T19:26:19.790Z,29.00
2022-08-08T19:29:42.387Z,29.30
2022-08-08T19:33:52.409Z,29.60
2022-08-08T19:37:43.343Z,30.00
2022-08-08T19:41:33.565Z,30.30
2022-08-08T19:45:57.126Z,31.00
2022-08-08T19:49:19.667Z,30.90
2022-08-08T19:53:01.585Z,31.00
2022-08-08T19:56:48.511Z,31.20
2022-08-08T20:00:35.119Z,31.40
2022-08-08T20:04:17.541Z,31.60
2022-08-08T20:08:28.354Z,31.80
2022-08-08T20:12:01.290Z,31.90
2022-08-08T20:15:52.630Z,32.20
2022-08-08T20:19:43.638Z,32.30
2022-08-08T20:23:25.466Z,32.40
2022-08-08T20:27:09.366Z,32.60
2022-08-08T20:30:55.692Z,32.70
2022-08-08T20:34:38.550Z,32.80
2022-08-08T20:38:32.886Z,32.90
2022-08-08T20:42:15.279Z,33.00
2022-08-08T20:46:03.678Z,33.10
2022-08-08T20:49:46.893Z,33.10
2022-08-08T20:53:59.012Z,33.20
2022-08-08T20:57:31.275Z,33.30
2022-08-08T21:01:19.925Z,33.40
2022-08-08T21:05:02.576Z,33.90
2022-08-08T21:08:49.391Z,33.60
2022-08-08T21:12:34.710Z,33.70
2022-08-08T21:16:20.617Z,33.70
2022-08-08T21:20:11.799Z,33.70
2022-08-08T21:24:02.417Z,33.70
2022-08-08T21:28:13.309Z,33.70
2022-08-08T21:31:57.709Z,33.70
2022-08-08T21:36:16.238Z,33.80
2022-08-08T21:39:56.714Z,34.00
2022-08-08T21:43:39.138Z,34.10
2022-08-08T21:48:07.244Z,34.20
2022-08-08T21:54:17.315Z,34.30
2022-08-08T21:56:24.602Z,34.40
2022-08-08T21:59:43.791Z,34.50
2022-08-08T22:03:30.668Z,34.60
2022-08-08T22:07:12.450Z,34.70
2022-08-08T22:10:55.234Z,34.80
2022-08-08T22:14:37.347Z,35.00
2022-08-08T22:18:19.249Z,35.00
2022-08-08T22:22:01.051Z,35.10
2022-08-08T22:26:26.813Z,35.30
2022-08-08T22:30:01.335Z,35.60
2022-08-08T22:34:13.949Z,35.90
2022-08-08T22:37:53.922Z,36.10
2022-08-08T22:41:36.675Z,36.30
2022-08-08T22:45:21.100Z,36.50
2022-08-08T22:49:03.573Z,36.70
2022-08-08T22:53:00.044Z,36.90
2022-08-08T22:56:50.297Z,37.00
2022-08-08T23:00:32.301Z,37.60
2022-08-08T23:04:14.558Z,37.70
2022-08-08T23:08:19.869Z,37.80
2022-08-08T23:12:27.662Z,38.10
2022-08-08T23:16:38.200Z,38.40
2022-08-08T23:20:06.058Z,39.00
2022-08-08T23:23:48.853Z,39.20
2022-08-08T23:27:46.186Z,39.20
2022-08-08T23:31:28.959Z,39.10
2022-08-08T23:35:12.577Z,39.20
2022-08-08T23:38:59.208Z,39.60
2022-08-08T23:42:40.984Z,40.10
2022-08-08T23:49:00.408Z,39.90
2022-08-08T23:50:30.883Z,39.90
2022-08-08T23:54:43.682Z,40.00
2022-08-08T23:58:32.180Z,40.10
